createdAt,value
2019-05-14T00:01:11.821Z,40.84
2019-05-14T00:04:37.414Z,40.46
2019-05-14T00:08:07.317Z,40.29
2019-05-14T00:11:33.006Z,40.42
2019-05-14T00:14:58.648Z,40.52
2019-05-14T00:18:24.411Z,40.84
2019-05-14T00:21:51.494Z,41.01
2019-05-14T00:25:17.153Z,41.04
2019-05-14T00:28:43.095Z,40.65
2019-05-14T00:32:11.102Z,40.75
2019-05-14T00:35:36.060Z,40.80
2019-05-14T00:39:01.931Z,40.79
2019-05-14T00:42:28.591Z,40.96
2019-05-14T00:45:54.394Z,40.88
2019-05-14T00:49:21.314Z,40.85
2019-05-14T00:52:47.009Z,41.33
2019-05-14T00:56:12.596Z,41.26
2019-05-14T00:59:38.208Z,41.78
2019-05-14T01:03:03.845Z,41.66
2019-05-14T01:06:31.508Z,41.80
2019-05-14T01:09:56.818Z,42.06
2019-05-14T01:13:22.416Z,42.55
2019-05-14T01:16:48.032Z,42.50
2019-05-14T01:20:15.092Z,42.69
2019-05-14T01:23:41.630Z,42.93
2019-05-14T01:27:07.820Z,43.22
2019-05-14T01:30:33.988Z,43.10
2019-05-14T01:34:01.980Z,43.89
2019-05-14T01:37:26.923Z,44.04
2019-05-14T01:40:52.719Z,44.00
2019-05-14T01:44:18.399Z,43.98
2019-05-14T01:47:44.038Z,44.43
2019-05-14T01:51:11.741Z,44.45
2019-05-14T01:54:36.939Z,44.99
2019-05-14T01:58:02.576Z,45.37
2019-05-14T02:01:28.237Z,45.69
2019-05-14T02:04:53.879Z,45.86
2019-05-14T02:08:21.446Z,45.84
2019-05-14T02:11:46.845Z,46.14
2019-05-14T02:15:13.294Z,45.85
2019-05-14T02:18:38.883Z,46.21
2019-05-14T02:22:04.530Z,46.04
2019-05-14T02:25:31.970Z,46.43
2019-05-14T02:28:57.491Z,46.74
2019-05-14T02:32:23.116Z,46.69
2019-05-14T02:35:49.478Z,46.78
2019-05-14T02:39:15.364Z,46.98
2019-05-14T02:42:41.229Z,46.81
2019-05-14T02:46:13.140Z,47.13
2019-05-14T02:49:34.951Z,47.45
2019-05-14T02:53:01.512Z,47.75
2019-05-14T02:56:29.635Z,47.90
2019-05-14T02:59:54.398Z,48.21
2019-05-14T03:03:20.350Z,48.40
2019-05-14T03:06:46.085Z,48.18
2019-05-14T03:10:13.298Z,48.02
2019-05-14T03:13:40.025Z,48.30
2019-05-14T03:17:06.119Z,48.41
2019-05-14T03:20:31.786Z,48.78
2019-05-14T03:24:00.611Z,48.63
2019-05-14T03:27:24.802Z,48.70
2019-05-14T03:30:52.050Z,48.87
2019-05-14T03:34:22.011Z,48.67
2019-05-14T03:37:45.335Z,48.69
2019-05-14T03:41:14.071Z,48.85
2019-05-14T03:44:39.939Z,49.42
2019-05-14T03:48:05.930Z,49.89
2019-05-14T03:51:31.928Z,50.47
2019-05-14T03:55:03.702Z,50.50
2019-05-14T03:58:25.324Z,50.24
2019-05-14T04:01:51.452Z,50.70
2019-05-14T04:05:19.800Z,50.63
2019-05-14T04:08:45.140Z,50.78
2019-05-14T04:12:13.510Z,50.64
2019-05-14T04:15:42.969Z,50.88
2019-05-14T04:19:11.975Z,50.96
2019-05-14T04:22:40.616Z,50.67
2019-05-14T04:26:09.329Z,50.84
2019-05-14T04:29:39.584Z,49.79
2019-05-14T04:33:05.049Z,49.83
2019-05-14T04:36:30.725Z,50.28
2019-05-14T04:39:59.323Z,50.45
2019-05-14T04:43:23.862Z,49.90
2019-05-14T04:46:49.662Z,50.17
2019-05-14T04:50:15.690Z,49.75
2019-05-14T04:53:41.650Z,49.57
2019-05-14T04:57:10.384Z,49.95
2019-05-14T05:00:39.194Z,49.66
2019-05-14T05:04:09.331Z,49.16
2019-05-14T05:07:33.907Z,49.31
2019-05-14T05:11:00.213Z,49.16
2019-05-14T05:14:26.012Z,48.88
2019-05-14T05:17:53.052Z,48.78
2019-05-14T05:21:19.439Z,48.83
2019-05-14T05:24:45.172Z,48.74
2019-05-14T05:28:10.779Z,48.76
2019-05-14T05:31:38.136Z,48.43
2019-05-14T05:35:05.680Z,48.31
2019-05-14T05:38:31.281Z,47.77
2019-05-14T05:41:58.558Z,48.02
2019-05-14T05:45:24.387Z,48.26
2019-05-14T05:48:50.047Z,47.78
2019-05-14T05:52:15.633Z,47.75
2019-05-14T05:55:41.237Z,47.67
2019-05-14T05:59:09.267Z,47.80
2019-05-14T06:02:34.305Z,47.61
2019-05-14T06:06:00.061Z,47.84
2019-05-14T06:09:25.686Z,47.86
2019-05-14T06:12:51.277Z,47.19
2019-05-14T06:16:18.615Z,46.71
2019-05-14T06:19:44.502Z,46.65
2019-05-14T06:23:10.166Z,46.68
2019-05-14T06:26:35.755Z,46.41
2019-05-14T06:30:01.464Z,46.12
2019-05-14T06:33:28.618Z,46.07
2019-05-14T06:36:55.583Z,45.81
2019-05-14T06:40:21.194Z,46.19
2019-05-14T06:43:48.630Z,46.12
2019-05-14T06:47:14.097Z,45.85
2019-05-14T06:50:40.403Z,46.10
2019-05-14T06:54:06.004Z,45.50
2019-05-14T06:57:31.620Z,45.50
2019-05-14T07:00:58.935Z,45.18
2019-05-14T07:04:24.532Z,44.71
2019-05-14T07:07:50.129Z,45.09
2019-05-14T07:11:15.767Z,44.42
2019-05-14T07:14:42.510Z,45.20
2019-05-14T07:18:08.698Z,45.34
2019-05-14T07:21:34.417Z,44.71
2019-05-14T07:25:00.045Z,44.10
2019-05-14T07:28:25.648Z,44.52
2019-05-14T07:31:51.270Z,44.70
2019-05-14T07:35:18.547Z,43.46
2019-05-14T07:38:44.177Z,43.36
2019-05-14T07:42:10.100Z,43.42
2019-05-14T07:45:38.384Z,43.29
2019-05-14T07:49:08.091Z,43.32
2019-05-14T07:52:30.414Z,43.15
2019-05-14T07:55:56.017Z,42.85
2019-05-14T07:59:21.621Z,42.97
2019-05-14T08:02:49.154Z,42.53
2019-05-14T08:06:14.639Z,42.27
2019-05-14T08:09:40.234Z,41.74
2019-05-14T08:13:08.341Z,42.07
2019-05-14T08:16:33.312Z,41.85
2019-05-14T08:19:59.068Z,42.06
2019-05-14T08:23:24.682Z,41.13
2019-05-14T08:26:50.303Z,40.36
2019-05-14T08:30:18.822Z,39.30
2019-05-14T08:33:44.579Z,38.24
2019-05-14T08:37:10.168Z,38.06
2019-05-14T08:40:37.852Z,37.67
2019-05-14T08:44:03.209Z,36.40
2019-05-14T08:47:29.351Z,35.98
2019-05-14T08:50:54.995Z,35.97
2019-05-14T08:54:20.635Z,35.33
2019-05-14T08:57:48.563Z,34.93
2019-05-14T09:01:13.562Z,35.57
2019-05-14T09:04:42.902Z,34.66
2019-05-14T09:08:08.831Z,34.11
2019-05-14T09:11:36.472Z,33.20
2019-05-14T09:15:01.326Z,30.72
2019-05-14T09:18:29.060Z,30.81
2019-05-14T09:21:54.316Z,30.49
2019-05-14T09:25:47.303Z,29.89
2019-05-14T09:29:19.596Z,30.35
2019-05-14T09:32:34.183Z,29.71
2019-05-14T09:36:17.537Z,26.03
2019-05-14T09:39:29.103Z,25.20
2019-05-14T09:42:54.595Z,27.32
2019-05-14T09:46:20.207Z,26.33
2019-05-14T09:49:49.054Z,25.75
2019-05-14T09:53:14.646Z,25.20
2019-05-14T09:56:40.667Z,23.94
2019-05-14T10:00:14.392Z,24.01
2019-05-14T10:03:39.245Z,23.96
2019-05-14T10:07:05.176Z,26.23
2019-05-14T10:10:31.248Z,26.82
2019-05-14T10:13:56.908Z,26.40
2019-05-14T10:17:22.518Z,26.83
2019-05-14T10:20:49.598Z,25.47
2019-05-14T10:24:15.463Z,25.71
2019-05-14T10:27:41.053Z,24.35
2019-05-14T10:31:09.419Z,23.50
2019-05-14T10:34:34.526Z,24.27
2019-05-14T10:38:00.612Z,25.72
2019-05-14T10:41:28.774Z,25.57
2019-05-14T10:44:53.902Z,26.23
2019-05-14T10:48:19.486Z,26.97
2019-05-14T10:51:47.912Z,28.18
2019-05-14T10:55:15.174Z,26.90
2019-05-14T10:58:40.785Z,27.77
2019-05-14T11:02:11.560Z,29.30
2019-05-14T11:05:33.774Z,28.80
2019-05-14T11:08:59.376Z,28.10
2019-05-14T11:12:24.990Z,29.34
2019-05-14T11:15:50.578Z,29.03
2019-05-14T11:19:18.675Z,30.76
2019-05-14T11:22:44.030Z,30.70
2019-05-14T11:26:09.652Z,30.11
2019-05-14T11:29:35.483Z,31.13
2019-05-14T11:33:01.100Z,31.27
2019-05-14T11:36:28.846Z,30.70
2019-05-14T11:39:53.987Z,31.29
2019-05-14T11:43:19.576Z,30.73
2019-05-14T11:46:56.293Z,30.74
2019-05-14T11:50:14.030Z,29.30
2019-05-14T11:53:39.624Z,29.16
2019-05-14T11:57:05.373Z,28.96
2019-05-14T12:00:31.423Z,29.08
2019-05-14T12:03:59.781Z,29.74
2019-05-14T12:07:24.325Z,28.81
2019-05-14T12:10:50.598Z,28.36
2019-05-14T12:14:16.203Z,27.72
2019-05-14T12:17:42.172Z,27.84
2019-05-14T12:21:09.004Z,27.57
2019-05-14T12:24:35.606Z,26.55
2019-05-14T12:28:01.231Z,26.30
2019-05-14T12:31:28.931Z,25.76
2019-05-14T12:34:54.784Z,24.99
2019-05-14T12:38:20.667Z,25.14
2019-05-14T12:41:46.272Z,24.56
2019-05-14T12:45:15.659Z,25.25
2019-05-14T12:48:41.281Z,25.18
2019-05-14T12:52:21.462Z,24.05
2019-05-14T12:55:34.201Z,23.80
2019-05-14T12:58:59.888Z,23.59
2019-05-14T13:02:25.515Z,23.22
2019-05-14T13:05:51.114Z,22.84
2019-05-14T13:09:21.344Z,22.34
2019-05-14T13:12:44.017Z,21.80
2019-05-14T13:16:09.655Z,21.13
2019-05-14T13:19:35.248Z,21.00
2019-05-14T13:23:00.855Z,20.58
2019-05-14T13:26:29.693Z,20.00
2019-05-14T13:29:54.883Z,20.04
2019-05-14T13:33:20.471Z,19.80
2019-05-14T13:36:48.869Z,19.44
2019-05-14T13:40:15.040Z,19.04
2019-05-14T13:43:40.972Z,19.46
2019-05-14T13:47:09.077Z,18.50
2019-05-14T13:50:34.419Z,17.77
2019-05-14T13:54:00.019Z,17.15
2019-05-14T13:57:28.678Z,16.62
2019-05-14T14:00:54.763Z,15.43
2019-05-14T14:04:20.395Z,15.17
2019-05-14T14:07:48.381Z,14.70
2019-05-14T14:11:13.380Z,14.21
2019-05-14T14:14:39.047Z,14.25
2019-05-14T14:18:04.690Z,14.30
2019-05-14T14:21:30.419Z,13.16
2019-05-14T14:24:59.069Z,13.48
2019-05-14T14:28:23.906Z,13.23
2019-05-14T14:31:49.636Z,12.69
2019-05-14T14:35:15.660Z,12.47
2019-05-14T14:38:41.278Z,12.37
2019-05-14T14:42:06.873Z,12.30
2019-05-14T14:45:32.840Z,12.04
2019-05-14T14:49:02.697Z,11.92
2019-05-14T14:52:29.194Z,11.87
2019-05-14T14:55:53.795Z,11.70
2019-05-14T14:59:19.395Z,11.47
2019-05-14T15:02:44.984Z,10.84
2019-05-14T15:06:10.872Z,11.07
2019-05-14T15:09:36.519Z,10.89
2019-05-14T15:13:02.122Z,10.79
2019-05-14T15:16:29.171Z,10.84
2019-05-14T15:19:55.401Z,10.36
2019-05-14T15:23:21.000Z,10.44
2019-05-14T15:26:46.680Z,10.75
2019-05-14T15:30:13.850Z,10.46
2019-05-14T15:33:39.834Z,10.31
2019-05-14T15:37:05.416Z,10.13
2019-05-14T15:40:31.016Z,10.45
2019-05-14T15:43:58.859Z,11.19
2019-05-14T15:47:24.546Z,10.41
2019-05-14T15:50:50.433Z,10.38
2019-05-14T15:54:36.276Z,11.00
2019-05-14T15:57:43.898Z,13.03
2019-05-14T16:01:10.461Z,13.52
2019-05-14T16:04:38.822Z,12.59
2019-05-14T16:08:04.034Z,12.53
2019-05-14T16:11:29.631Z,11.96
2019-05-14T16:14:55.252Z,11.52
2019-05-14T16:18:22.446Z,12.91
2019-05-14T16:21:48.243Z,13.98
2019-05-14T16:25:15.988Z,13.49
2019-05-14T16:28:41.754Z,13.79
2019-05-14T16:32:08.466Z,13.75
2019-05-14T16:35:34.286Z,12.50
2019-05-14T16:38:59.839Z,12.41
2019-05-14T16:42:25.435Z,12.32
2019-05-14T16:45:51.924Z,12.09
2019-05-14T16:49:18.546Z,12.27
2019-05-14T16:52:44.279Z,11.74
2019-05-14T16:56:09.984Z,11.91
2019-05-14T16:59:35.746Z,11.87
2019-05-14T17:03:01.434Z,12.24
2019-05-14T17:06:29.279Z,13.04
2019-05-14T17:09:54.326Z,13.19
2019-05-14T17:13:20.115Z,13.38
2019-05-14T17:16:45.759Z,13.37
2019-05-14T17:20:11.685Z,13.92
2019-05-14T17:23:39.289Z,14.52
2019-05-14T17:27:05.281Z,14.68
2019-05-14T17:30:31.479Z,14.26
2019-05-14T17:33:58.455Z,14.78
2019-05-14T17:37:24.107Z,15.03
2019-05-14T17:40:51.603Z,14.51
2019-05-14T17:44:17.777Z,15.11
2019-05-14T17:47:43.378Z,15.78
2019-05-14T17:51:09.661Z,14.94
2019-05-14T17:54:35.377Z,15.19
2019-05-14T17:58:01.215Z,15.15
2019-05-14T18:01:29.010Z,15.28
2019-05-14T18:04:56.371Z,15.55
2019-05-14T18:08:21.402Z,15.96
2019-05-14T18:11:49.109Z,15.63
2019-05-14T18:15:16.365Z,15.96
2019-05-14T18:18:42.076Z,16.64
2019-05-14T18:22:08.827Z,18.03
2019-05-14T18:25:34.709Z,18.70
2019-05-14T18:29:00.317Z,20.19
2019-05-14T18:32:25.909Z,21.70
2019-05-14T18:35:51.587Z,22.21
2019-05-14T18:39:20.230Z,23.16
2019-05-14T18:42:44.615Z,23.35
2019-05-14T18:46:10.220Z,24.30
2019-05-14T18:49:35.872Z,24.70
2019-05-14T18:53:01.546Z,25.27
2019-05-14T18:56:29.256Z,25.82
2019-05-14T18:59:54.617Z,26.32
2019-05-14T19:03:20.572Z,26.30
2019-05-14T19:06:48.115Z,26.95
2019-05-14T19:10:14.609Z,27.28
2019-05-14T19:13:40.178Z,27.62
2019-05-14T19:17:05.958Z,28.08
2019-05-14T19:20:31.542Z,28.80
2019-05-14T19:23:57.436Z,28.92
2019-05-14T19:27:22.985Z,29.52
2019-05-14T19:30:48.874Z,29.71
2019-05-14T19:34:14.602Z,29.89
2019-05-14T19:37:40.277Z,30.25
2019-05-14T19:41:08.441Z,30.63
2019-05-14T19:44:33.191Z,30.83
2019-05-14T19:47:58.782Z,31.13
2019-05-14T19:51:24.806Z,31.45
2019-05-14T19:54:50.496Z,32.14
2019-05-14T19:58:20.007Z,32.50
2019-05-14T20:01:45.049Z,32.88
2019-05-14T20:05:10.977Z,32.95
2019-05-14T20:08:38.515Z,33.50
2019-05-14T20:12:04.580Z,32.83
2019-05-14T20:15:30.273Z,33.06
2019-05-14T20:18:57.933Z,33.28
2019-05-14T20:22:23.218Z,33.54
2019-05-14T20:25:48.971Z,33.98
2019-05-14T20:29:14.615Z,34.46
2019-05-14T20:32:40.177Z,35.18
2019-05-14T20:36:08.066Z,35.48
2019-05-14T20:39:33.553Z,35.81
2019-05-14T20:43:00.065Z,36.08
2019-05-14T20:46:25.765Z,36.56
2019-05-14T20:49:51.509Z,36.40
2019-05-14T20:53:18.610Z,36.72
2019-05-14T20:56:44.481Z,37.47
2019-05-14T21:00:12.200Z,37.38
2019-05-14T21:03:38.015Z,37.48
2019-05-14T21:07:04.616Z,38.23
2019-05-14T21:10:30.270Z,38.62
2019-05-14T21:13:58.126Z,39.05
2019-05-14T21:17:23.261Z,39.62
2019-05-14T21:20:49.040Z,39.97
2019-05-14T21:24:14.800Z,40.46
2019-05-14T21:27:47.886Z,40.79
2019-05-14T21:31:10.202Z,41.51
2019-05-14T21:34:35.068Z,42.05
2019-05-14T21:38:00.711Z,42.50
2019-05-14T21:41:28.795Z,43.24
2019-05-14T21:44:53.679Z,43.86
2019-05-14T21:48:20.017Z,45.18
2019-05-14T21:51:45.820Z,46.10
2019-05-14T21:55:11.982Z,46.48
2019-05-14T21:58:38.669Z,46.52
2019-05-14T22:02:05.186Z,46.26
2019-05-14T22:05:30.992Z,46.95
2019-05-14T22:08:58.956Z,47.09
2019-05-14T22:12:24.006Z,47.57
2019-05-14T22:15:49.635Z,47.41
2019-05-14T22:19:15.329Z,47.38
2019-05-14T22:22:40.953Z,47.38
2019-05-14T22:26:06.587Z,48.04
2019-05-14T22:29:32.267Z,48.70
2019-05-14T22:33:00.387Z,48.63
2019-05-14T22:36:25.222Z,48.20
2019-05-14T22:39:50.841Z,49.30
2019-05-14T22:43:18.298Z,49.58
2019-05-14T22:46:43.794Z,49.89
2019-05-14T22:50:10.430Z,49.85
2019-05-14T22:53:36.105Z,50.77
2019-05-14T22:57:01.740Z,51.16
2019-05-14T23:00:28.606Z,51.62
2019-05-14T23:03:54.662Z,51.45
2019-05-14T23:07:20.268Z,51.19
2019-05-14T23:10:45.931Z,51.12
2019-05-14T23:14:11.585Z,50.54
2019-05-14T23:17:38.907Z,51.39
2019-05-14T23:21:04.497Z,51.59
2019-05-14T23:24:30.131Z,51.87
2019-05-14T23:27:55.752Z,52.46
2019-05-14T23:31:21.403Z,52.35
2019-05-14T23:34:48.817Z,52.21
2019-05-14T23:38:15.050Z,52.12
2019-05-14T23:41:40.891Z,51.71
2019-05-14T23:45:08.344Z,51.61
2019-05-14T23:48:34.257Z,50.84
2019-05-14T23:51:59.910Z,51.27
2019-05-14T23:55:25.515Z,50.97
2019-05-14T23:58:55.910Z,50.63
